createdAt,value
2022-09-13T00:00:12.030Z,95308.50
2022-09-13T00:03:13.993Z,95300.38
2022-09-13T00:06:16.769Z,95298.06
2022-09-13T00:09:20.907Z,95298.44
2022-09-13T00:12:24.346Z,95291.75
2022-09-13T00:15:26.587Z,95292.44
2022-09-13T00:18:28.449Z,95285.75
2022-09-13T00:21:32.482Z,95280.53
2022-09-13T00:24:35.793Z,95275.41
2022-09-13T00:27:38.262Z,95270.50
2022-09-13T00:30:41.642Z,95260.22
2022-09-13T00:33:44.239Z,95267.06
2022-09-13T00:36:46.776Z,95261.75
2022-09-13T00:39:50.305Z,95268.34
2022-09-13T00:42:52.024Z,95258.84
2022-09-13T00:45:54.835Z,95262.31
2022-09-13T00:49:00.509Z,95262.44
2022-09-13T00:52:05.035Z,95261.16
2022-09-13T00:55:13.319Z,95260.72
2022-09-13T00:58:18.640Z,95256.41
2022-09-13T01:01:24.185Z,95250.47
2022-09-13T01:04:27.653Z,95257.81
2022-09-13T01:07:29.915Z,95258.66
2022-09-13T01:10:34.029Z,95246.28
2022-09-13T01:13:36.107Z,95250.06
2022-09-13T01:16:39.748Z,95245.78
2022-09-13T01:19:41.894Z,95235.25
2022-09-13T01:23:02.116Z,95238.53
2022-09-13T01:26:20.133Z,95242.41
2022-09-13T01:29:37.775Z,95238.56
2022-09-13T01:32:50.045Z,95235.72
2022-09-13T01:35:57.071Z,95233.88
2022-09-13T01:39:02.820Z,95221.16
2022-09-13T01:42:11.558Z,95211.00
2022-09-13T01:45:22.006Z,95210.13
2022-09-13T01:48:30.342Z,95208.91
2022-09-13T01:51:34.321Z,95220.78
2022-09-13T01:54:39.970Z,95207.25
2022-09-13T01:57:44.179Z,95204.69
2022-09-13T02:00:51.792Z,95197.41
2022-09-13T02:03:58.809Z,95192.84
2022-09-13T02:07:03.668Z,95197.75
2022-09-13T02:10:09.294Z,95191.19
2022-09-13T02:13:13.861Z,95184.59
2022-09-13T02:16:18.270Z,95183.41
2022-09-13T02:19:25.166Z,95192.69
2022-09-13T02:22:29.474Z,95190.56
2022-09-13T02:25:33.027Z,95188.00
2022-09-13T02:28:36.681Z,95178.06
2022-09-13T02:31:41.286Z,95169.22
2022-09-13T02:34:47.592Z,95177.31
2022-09-13T02:37:53.821Z,95181.06
2022-09-13T02:40:57.580Z,95182.56
2022-09-13T02:44:02.708Z,95169.75
2022-09-13T02:47:10.620Z,95165.94
2022-09-13T02:50:24.231Z,95175.19
2022-09-13T02:53:30.681Z,95171.63
2022-09-13T02:56:39.502Z,95173.16
2022-09-13T02:59:42.013Z,95184.44
2022-09-13T03:02:46.948Z,95182.50
2022-09-13T03:05:50.128Z,95168.97
2022-09-13T03:08:52.177Z,95184.75
2022-09-13T03:11:57.876Z,95185.56
2022-09-13T03:15:14.298Z,95186.28
2022-09-13T03:18:23.383Z,95185.47
2022-09-13T03:21:38.587Z,95185.78
2022-09-13T03:24:49.782Z,95181.91
2022-09-13T03:27:56.759Z,95185.78
2022-09-13T03:31:03.787Z,95184.22
2022-09-13T03:34:08.855Z,95174.81
2022-09-13T03:37:17.861Z,95168.25
2022-09-13T03:40:23.167Z,95168.50
2022-09-13T03:43:28.402Z,95182.06
2022-09-13T03:46:33.930Z,95181.25
2022-09-13T03:49:37.518Z,95175.03
2022-09-13T03:52:46.291Z,95175.91
2022-09-13T03:55:48.693Z,95181.69
2022-09-13T03:58:51.821Z,95177.78
2022-09-13T04:01:55.072Z,95181.19
2022-09-13T04:04:57.647Z,95184.63
2022-09-13T04:08:01.031Z,95181.84
2022-09-13T04:11:03.155Z,95189.59
2022-09-13T04:14:04.917Z,95189.28
2022-09-13T04:17:07.908Z,95189.38
2022-09-13T04:20:10.649Z,95183.59
2022-09-13T04:23:13.980Z,95199.88
2022-09-13T04:26:15.814Z,95189.06
2022-09-13T04:29:17.688Z,95188.69
2022-09-13T04:32:19.619Z,95201.41
2022-09-13T04:35:21.241Z,95206.81
2022-09-13T04:38:25.135Z,95204.09
2022-09-13T04:41:26.917Z,95212.16
2022-09-13T04:44:28.657Z,95211.47
2022-09-13T04:47:31.495Z,95209.19
2022-09-13T04:50:33.838Z,95213.03
2022-09-13T04:53:39.606Z,95213.41
2022-09-13T04:56:41.453Z,95199.50
2022-09-13T04:59:43.127Z,95188.28
2022-09-13T05:02:47.960Z,95191.31
2022-09-13T05:05:49.650Z,95197.06
2022-09-13T05:08:53.604Z,95192.03
2022-09-13T05:11:55.328Z,95188.16
2022-09-13T05:14:57.990Z,95184.28
2022-09-13T05:18:00.250Z,95183.84
2022-09-13T05:21:02.854Z,95185.75
2022-09-13T05:24:07.608Z,95193.88
2022-09-13T05:27:10.223Z,95203.56
2022-09-13T05:30:15.012Z,95205.47
2022-09-13T05:33:19.210Z,95208.91
2022-09-13T05:36:22.303Z,95215.88
2022-09-13T05:39:34.027Z,95216.63
2022-09-13T05:42:41.461Z,95222.84
2022-09-13T05:45:44.932Z,95223.66
2022-09-13T05:48:47.019Z,95220.97
2022-09-13T05:51:48.789Z,95217.06
2022-09-13T05:54:51.957Z,95224.00
2022-09-13T05:57:53.657Z,95232.06
2022-09-13T06:00:57.551Z,95220.09
2022-09-13T06:04:00.493Z,95225.88
2022-09-13T06:07:03.638Z,95221.94
2022-09-13T06:10:07.563Z,95226.56
2022-09-13T06:13:10.018Z,95228.06
2022-09-13T06:16:13.355Z,95219.94
2022-09-13T06:19:15.111Z,95221.81
2022-09-13T06:22:18.826Z,95224.09
2022-09-13T06:25:23.699Z,95220.97
2022-09-13T06:28:26.137Z,95220.97
2022-09-13T06:31:29.255Z,95219.38
2022-09-13T06:34:32.466Z,95211.19
2022-09-13T06:37:34.219Z,95203.38
2022-09-13T06:40:38.029Z,95207.53
2022-09-13T06:43:41.992Z,95206.69
2022-09-13T06:46:44.202Z,95197.00
2022-09-13T06:49:45.937Z,95200.06
2022-09-13T06:52:47.813Z,95198.84
2022-09-13T06:55:59.373Z,95207.72
2022-09-13T06:59:02.381Z,95215.03
2022-09-13T07:02:04.890Z,95207.28
2022-09-13T07:05:07.207Z,95195.56
2022-09-13T07:08:10.842Z,95207.06
2022-09-13T07:11:16.605Z,95202.31
2022-09-13T07:14:20.858Z,95191.31
2022-09-13T07:17:22.776Z,95195.16
2022-09-13T07:20:24.581Z,95201.59
2022-09-13T07:23:26.982Z,95193.34
2022-09-13T07:26:31.132Z,95196.88
2022-09-13T07:29:33.245Z,95204.81
2022-09-13T07:32:36.270Z,95197.00
2022-09-13T07:35:38.374Z,95190.59
2022-09-13T07:38:41.852Z,95194.09
2022-09-13T07:41:45.977Z,95199.47
2022-09-13T07:44:47.893Z,95199.88
2022-09-13T07:47:50.184Z,95205.94
2022-09-13T07:51:00.033Z,95209.44
2022-09-13T07:54:02.833Z,95216.41
2022-09-13T07:57:06.221Z,95216.72
2022-09-13T08:00:12.356Z,95221.19
2022-09-13T08:03:14.707Z,95222.34
2022-09-13T08:06:16.477Z,95223.41
2022-09-13T08:09:18.592Z,95214.75
2022-09-13T08:12:22.586Z,95217.72
2022-09-13T08:15:24.293Z,95222.91
2022-09-13T08:18:28.203Z,95227.47
2022-09-13T08:21:32.252Z,95235.03
2022-09-13T08:24:35.599Z,95234.84
2022-09-13T08:27:39.114Z,95230.94
2022-09-13T08:30:41.141Z,95219.88
2022-09-13T08:33:46.486Z,95213.34
2022-09-13T08:36:48.771Z,95212.25
2022-09-13T08:39:50.537Z,95211.06
2022-09-13T08:43:00.667Z,95215.44
2022-09-13T08:46:05.888Z,95223.91
2022-09-13T08:49:16.345Z,95224.19
2022-09-13T08:52:24.492Z,95222.44
2022-09-13T08:55:33.720Z,95227.81
2022-09-13T08:58:46.710Z,95227.66
2022-09-13T09:01:54.043Z,95219.09
2022-09-13T09:05:01.373Z,95218.91
2022-09-13T09:08:08.872Z,95211.22
2022-09-13T09:11:15.354Z,95208.22
2022-09-13T09:14:22.992Z,95214.66
2022-09-13T09:17:28.076Z,95214.06
2022-09-13T09:20:31.659Z,95213.66
2022-09-13T09:23:37.617Z,95215.06
2022-09-13T09:26:40.535Z,95210.84
2022-09-13T09:29:44.137Z,95203.31
2022-09-13T09:33:03.829Z,95198.31
2022-09-13T09:36:12.623Z,95193.63
2022-09-13T09:39:15.758Z,95184.75
2022-09-13T09:42:19.861Z,95190.13
2022-09-13T09:45:27.948Z,95180.50
2022-09-13T09:48:36.086Z,95183.00
2022-09-13T09:51:37.980Z,95177.31
2022-09-13T09:54:39.677Z,95180.13
2022-09-13T09:57:49.916Z,95182.66
2022-09-13T10:00:54.615Z,95177.56
2022-09-13T10:04:03.381Z,95161.69
2022-09-13T10:07:21.559Z,95164.63
2022-09-13T10:10:24.859Z,95167.38
2022-09-13T10:13:31.478Z,95163.28
2022-09-13T10:16:35.686Z,95171.50
2022-09-13T10:19:39.074Z,95152.66
2022-09-13T10:22:43.033Z,95158.53
2022-09-13T10:25:48.125Z,95149.09
2022-09-13T10:28:56.169Z,95151.16
2022-09-13T10:31:59.670Z,95145.06
2022-09-13T10:35:07.445Z,95144.66
2022-09-13T10:38:17.603Z,95141.78
2022-09-13T10:41:24.174Z,95151.34
2022-09-13T10:44:30.416Z,95154.25
2022-09-13T10:47:37.908Z,95142.53
2022-09-13T10:50:39.625Z,95145.81
2022-09-13T10:53:42.902Z,95140.47
2022-09-13T10:56:45.031Z,95134.53
2022-09-13T10:59:52.969Z,95137.72
2022-09-13T11:03:11.644Z,95126.31
2022-09-13T11:06:17.277Z,95123.56
2022-09-13T11:09:24.724Z,95129.53
2022-09-13T11:12:31.331Z,95125.09
2022-09-13T11:15:40.926Z,95121.28
2022-09-13T11:18:57.626Z,95112.31
2022-09-13T11:22:16.243Z,95110.63
2022-09-13T11:25:27.449Z,95111.66
2022-09-13T11:28:38.159Z,95112.44
2022-09-13T11:31:43.126Z,95105.72
2022-09-13T11:34:50.412Z,95109.81
2022-09-13T11:37:58.211Z,95104.50
2022-09-13T11:41:05.305Z,95104.19
2022-09-13T11:44:24.660Z,95106.88
2022-09-13T11:47:33.424Z,95100.13
2022-09-13T11:50:42.370Z,95088.50
2022-09-13T11:53:57.738Z,95087.53
2022-09-13T11:57:02.725Z,95074.06
2022-09-13T12:00:06.338Z,95063.16
2022-09-13T12:03:15.430Z,95073.91
2022-09-13T12:06:20.629Z,95075.31
2022-09-13T12:09:26.275Z,95074.19
2022-09-13T12:12:31.249Z,95076.78
2022-09-13T12:15:38.934Z,95077.47
2022-09-13T12:18:42.822Z,95072.94
2022-09-13T12:21:47.632Z,95068.25
2022-09-13T12:24:53.687Z,95071.16
2022-09-13T12:27:59.362Z,95063.03
2022-09-13T12:31:04.510Z,95063.22
2022-09-13T12:34:09.596Z,95066.69
2022-09-13T12:37:26.864Z,95054.69
2022-09-13T12:40:39.993Z,95054.59
2022-09-13T12:43:53.922Z,95047.06
2022-09-13T12:47:20.011Z,95046.13
2022-09-13T12:50:47.884Z,95048.19
2022-09-13T12:54:17.374Z,95032.63
2022-09-13T12:57:33.066Z,95039.09
2022-09-13T13:00:38.282Z,95034.91
2022-09-13T13:03:44.976Z,95046.28
2022-09-13T13:06:50.996Z,95038.31
2022-09-13T13:09:54.922Z,95047.25
2022-09-13T13:13:11.190Z,95044.03
2022-09-13T13:16:24.128Z,95044.81
2022-09-13T13:19:31.546Z,95044.13
2022-09-13T13:22:48.802Z,95048.69
2022-09-13T13:25:59.483Z,95053.63
2022-09-13T13:29:12.773Z,95051.84
2022-09-13T13:32:14.635Z,95052.19
2022-09-13T13:35:28.933Z,95041.38
2022-09-13T13:38:45.928Z,95052.66
2022-09-13T13:41:53.070Z,95057.59
2022-09-13T13:45:06.732Z,95054.28
2022-09-13T13:48:10.547Z,95059.25
2022-09-13T13:51:23.496Z,95046.34
2022-09-13T13:54:32.637Z,95036.66
2022-09-13T13:57:36.194Z,95025.53
2022-09-13T14:00:46.521Z,95026.19
2022-09-13T14:04:03.362Z,95023.63
2022-09-13T14:07:20.065Z,95017.47
2022-09-13T14:10:25.676Z,95026.06
2022-09-13T14:13:39.388Z,95015.25
2022-09-13T14:16:55.391Z,95005.31
2022-09-13T14:20:00.356Z,94992.66
2022-09-13T14:23:12.163Z,94993.59
2022-09-13T14:26:15.850Z,94990.03
2022-09-13T14:29:19.147Z,94986.03
2022-09-13T14:32:23.900Z,94988.13
2022-09-13T14:35:27.966Z,94989.38
2022-09-13T14:38:32.213Z,94996.50
2022-09-13T14:41:38.689Z,94995.91
2022-09-13T14:44:44.088Z,95009.41
2022-09-13T14:47:51.034Z,95009.41
2022-09-13T14:50:57.197Z,95007.09
2022-09-13T14:54:00.264Z,95003.34
2022-09-13T14:57:03.086Z,95009.53
2022-09-13T15:00:06.750Z,95007.13
2022-09-13T15:03:15.858Z,95003.63
2022-09-13T15:06:22.740Z,95010.63
2022-09-13T15:09:27.317Z,95018.19
2022-09-13T15:12:29.069Z,95011.81
2022-09-13T15:15:37.126Z,95002.78
2022-09-13T15:18:40.492Z,94994.56
2022-09-13T15:21:43.944Z,94992.22
2022-09-13T15:24:49.997Z,94988.88
2022-09-13T15:27:52.648Z,94989.63
2022-09-13T15:30:56.490Z,94985.88
2022-09-13T15:34:12.398Z,94996.13
2022-09-13T15:37:15.637Z,94999.69
2022-09-13T15:40:19.886Z,95000.91
2022-09-13T15:43:22.259Z,95007.91
2022-09-13T15:46:24.163Z,95006.88
2022-09-13T15:49:28.803Z,95006.00
2022-09-13T15:52:31.025Z,95010.91
2022-09-13T15:55:33.337Z,95021.13
2022-09-13T15:58:37.201Z,95003.59
2022-09-13T16:01:38.965Z,95011.06
2022-09-13T16:04:43.189Z,95002.53
2022-09-13T16:07:46.086Z,94996.44
2022-09-13T16:10:48.961Z,94996.91
2022-09-13T16:13:51.665Z,94988.66
2022-09-13T16:16:56.683Z,94988.19
2022-09-13T16:19:59.864Z,94983.59
2022-09-13T16:23:01.605Z,94983.00
2022-09-13T16:26:04.953Z,94981.31
2022-09-13T16:29:08.023Z,94978.09
2022-09-13T16:32:09.708Z,94967.56
2022-09-13T16:35:13.041Z,94954.72
2022-09-13T16:38:14.976Z,94944.97
2022-09-13T16:41:17.506Z,94949.56
2022-09-13T16:44:19.452Z,94959.63
2022-09-13T16:47:21.396Z,94961.94
2022-09-13T16:50:24.581Z,94948.66
2022-09-13T16:53:26.618Z,94957.22
2022-09-13T16:56:28.423Z,94974.13
2022-09-13T16:59:30.170Z,94960.91
2022-09-13T17:02:34.985Z,94964.22
2022-09-13T17:05:40.503Z,94962.25
2022-09-13T17:08:45.855Z,94967.19
2022-09-13T17:11:48.973Z,94955.63
2022-09-13T17:14:50.634Z,94967.22
2022-09-13T17:17:52.270Z,94956.69
2022-09-13T17:20:55.461Z,94951.06
2022-09-13T17:23:57.141Z,94952.28
2022-09-13T17:26:59.265Z,94948.63
2022-09-13T17:30:03.205Z,94944.22
2022-09-13T17:33:07.377Z,94946.81
2022-09-13T17:36:12.693Z,94950.28
2022-09-13T17:39:18.050Z,94944.06
2022-09-13T17:42:23.499Z,94949.53
2022-09-13T17:45:26.940Z,94947.53
2022-09-13T17:48:30.887Z,94952.59
2022-09-13T17:51:35.435Z,94945.56
2022-09-13T17:54:37.113Z,94943.59
2022-09-13T17:57:39.180Z,94948.31
2022-09-13T18:00:41.073Z,94956.53
2022-09-13T18:03:43.334Z,94951.22
2022-09-13T18:06:47.103Z,94948.00
2022-09-13T18:09:49.935Z,94955.31
2022-09-13T18:12:52.033Z,94952.13
2022-09-13T18:16:00.649Z,94943.56
2022-09-13T18:19:03.130Z,94940.47
2022-09-13T18:22:07.582Z,94946.13
2022-09-13T18:25:09.702Z,94952.25
2022-09-13T18:28:14.436Z,94945.03
2022-09-13T18:31:17.989Z,94946.19
2022-09-13T18:34:24.593Z,94948.44
2022-09-13T18:37:30.891Z,94951.91
2022-09-13T18:40:33.016Z,94949.63
2022-09-13T18:43:38.713Z,94947.81
2022-09-13T18:46:41.240Z,94941.50
2022-09-13T18:49:43.322Z,94943.63
2022-09-13T18:52:47.713Z,94944.22
2022-09-13T18:55:49.765Z,94938.09
2022-09-13T18:58:53.562Z,94943.13
2022-09-13T19:01:56.030Z,94950.50
2022-09-13T19:04:59.670Z,94948.00
2022-09-13T19:08:06.753Z,94953.09
2022-09-13T19:11:29.224Z,94944.84
2022-09-13T19:14:37.698Z,94950.88
2022-09-13T19:17:40.707Z,94949.44
2022-09-13T19:20:45.473Z,94936.44
2022-09-13T19:24:00.036Z,94929.09
2022-09-13T19:27:05.343Z,94935.66
2022-09-13T19:30:08.212Z,94933.06
2022-09-13T19:33:12.917Z,94931.59
2022-09-13T19:36:16.000Z,94931.00
2022-09-13T19:39:24.764Z,94935.59
2022-09-13T19:42:30.530Z,94927.31
2022-09-13T19:45:33.437Z,94923.38
2022-09-13T19:48:39.249Z,94934.38
2022-09-13T19:51:42.322Z,94922.06
2022-09-13T19:54:45.998Z,94924.13
2022-09-13T19:57:48.207Z,94931.59
2022-09-13T20:01:00.771Z,94923.72
2022-09-13T20:04:04.081Z,94912.38
2022-09-13T20:07:07.491Z,94916.13
2022-09-13T20:10:11.729Z,94910.41
2022-09-13T20:13:13.841Z,94912.44
2022-09-13T20:16:20.805Z,94909.56
2022-09-13T20:19:40.591Z,94913.19
2022-09-13T20:22:44.983Z,94904.69
2022-09-13T20:25:50.361Z,94906.78
2022-09-13T20:28:57.711Z,94911.19
2022-09-13T20:32:01.543Z,94908.72
2022-09-13T20:35:03.708Z,94908.81
2022-09-13T20:38:05.813Z,94907.72
2022-09-13T20:41:12.916Z,94915.13
2022-09-13T20:44:16.525Z,94903.91
2022-09-13T20:47:19.831Z,94891.69
2022-09-13T20:50:23.116Z,94888.78
2022-09-13T20:53:28.351Z,94888.84
2022-09-13T20:56:32.481Z,94884.13
2022-09-13T20:59:35.883Z,94878.41
2022-09-13T21:02:38.873Z,94888.47
2022-09-13T21:05:42.684Z,94877.84
2022-09-13T21:08:44.645Z,94870.91
2022-09-13T21:11:48.113Z,94871.38
2022-09-13T21:14:52.151Z,94882.28
2022-09-13T21:17:55.678Z,94878.56
2022-09-13T21:21:00.330Z,94873.56
2022-09-13T21:24:05.521Z,94866.34
2022-09-13T21:27:08.860Z,94873.97
2022-09-13T21:30:12.522Z,94870.91
2022-09-13T21:33:14.978Z,94881.50
2022-09-13T21:36:22.492Z,94870.63
2022-09-13T21:39:25.008Z,94863.66
2022-09-13T21:42:27.983Z,94867.97
2022-09-13T21:45:31.088Z,94871.03
2022-09-13T21:48:33.904Z,94868.84
2022-09-13T21:51:38.114Z,94871.47
2022-09-13T21:54:41.111Z,94875.41
2022-09-13T21:57:45.117Z,94864.69
2022-09-13T22:00:47.779Z,94874.06
2022-09-13T22:03:51.749Z,94872.75
2022-09-13T22:06:53.972Z,94872.16
2022-09-13T22:09:57.021Z,94857.75
2022-09-13T22:13:00.022Z,94857.66
2022-09-13T22:16:03.418Z,94859.69
2022-09-13T22:19:08.931Z,94860.13
2022-09-13T22:22:12.417Z,94860.91
2022-09-13T22:25:15.784Z,94863.59
2022-09-13T22:28:20.645Z,94853.22
2022-09-13T22:31:25.508Z,94858.06
2022-09-13T22:34:29.506Z,94854.41
2022-09-13T22:37:31.350Z,94861.66
2022-09-13T22:40:33.992Z,94857.13
2022-09-13T22:43:37.477Z,94850.16
2022-09-13T22:46:40.485Z,94842.81
2022-09-13T22:49:43.138Z,94842.78
2022-09-13T22:52:46.371Z,94838.47
2022-09-13T22:55:51.403Z,94838.19
2022-09-13T22:58:56.299Z,94831.78
2022-09-13T23:01:58.367Z,94822.84
2022-09-13T23:05:00.178Z,94818.47
2022-09-13T23:08:02.356Z,94824.50
2022-09-13T23:11:11.305Z,94815.88
2022-09-13T23:14:15.219Z,94816.06
2022-09-13T23:17:17.453Z,94818.47
2022-09-13T23:20:21.007Z,94833.63
2022-09-13T23:23:25.344Z,94830.75
2022-09-13T23:26:27.596Z,94836.50
2022-09-13T23:29:32.499Z,94841.19
2022-09-13T23:32:34.243Z,94841.88
2022-09-13T23:35:39.498Z,94832.59
2022-09-13T23:38:41.648Z,94836.78
2022-09-13T23:41:45.433Z,94840.91
2022-09-13T23:44:48.784Z,94828.06
2022-09-13T23:47:51.033Z,94823.44
2022-09-13T23:51:00.205Z,94832.75
2022-09-13T23:54:03.836Z,94828.94
2022-09-13T23:57:07.711Z,94825.81
